Terminal Aerodrome Forecast
Issued by NWS

Home | Current Version | Previous Version | Graphics & Text | Print | Product List | Glossary On
Versions: 1 2 3 4 5 6 7 8 9 10 11 12 13 14 15 16 17
000
FTUS43 KICT 251137
TAFHUT
TAF
KHUT 251137Z 2512/2612 32024G33KT P6SM SCT060
     FM251500 33026G37KT P6SM SCT035 SCT080
     FM252200 34015KT P6SM SCT100 SCT200
     FM260100 34006KT P6SM SCT250
     FM260700 25006KT P6SM SCT250=

USA.gov is the U.S. government's official web portal to all federal, state and local government web resources and services.